createdAt,value
2022-12-18T00:01:19.393Z,-3.87
2022-12-18T00:03:47.349Z,-3.81
2022-12-18T00:06:15.588Z,-3.83
2022-12-18T00:08:43.456Z,-3.81
2022-12-18T00:11:16.611Z,-3.86
2022-12-18T00:13:44.129Z,-3.81
2022-12-18T00:16:15.785Z,-3.89
2022-12-18T00:18:43.243Z,-3.92
2022-12-18T00:21:12.232Z,-3.89
2022-12-18T00:23:40.896Z,-3.95
2022-12-18T00:26:11.785Z,-3.97
2022-12-18T00:28:42.196Z,-3.95
2022-12-18T00:31:11.510Z,-3.97
2022-12-18T00:33:39.326Z,-4.02
2022-12-18T00:36:15.229Z,-4.07
2022-12-18T00:38:42.636Z,-4.11
2022-12-18T00:41:11.335Z,-4.13
2022-12-18T00:43:40.022Z,-4.17
2022-12-18T00:46:07.489Z,-4.12
2022-12-18T00:48:35.261Z,-4.18
2022-12-18T00:51:02.330Z,-4.18
2022-12-18T00:53:29.498Z,-4.18
2022-12-18T00:55:56.927Z,-4.20
2022-12-18T00:58:24.026Z,-4.27
2022-12-18T01:00:51.161Z,-4.18
2022-12-18T01:03:18.640Z,-4.12
2022-12-18T01:05:45.778Z,-4.13
2022-12-18T01:08:12.917Z,-4.07
2022-12-18T01:10:42.922Z,-4.05
2022-12-18T01:13:09.995Z,-4.05
2022-12-18T01:15:37.199Z,-4.04
2022-12-18T01:18:05.754Z,-4.11
2022-12-18T01:20:33.427Z,-4.04
2022-12-18T01:23:00.529Z,-4.04
2022-12-18T01:25:27.866Z,-4.04
2022-12-18T01:27:54.914Z,-3.99
2022-12-18T01:30:21.976Z,-4.02
2022-12-18T01:32:49.363Z,-3.90
2022-12-18T01:35:17.703Z,-3.88
2022-12-18T01:37:44.794Z,-3.93
2022-12-18T01:40:12.288Z,-4.02
2022-12-18T01:42:39.916Z,-3.89
2022-12-18T01:45:12.976Z,-3.94
2022-12-18T01:47:51.003Z,-3.86
2022-12-18T01:50:22.817Z,-3.88
2022-12-18T01:52:54.146Z,-3.94
2022-12-18T01:55:25.090Z,-3.96
2022-12-18T01:57:55.345Z,-3.91
2022-12-18T02:00:24.008Z,-3.92
2022-12-18T02:02:52.298Z,-3.90
2022-12-18T02:05:27.067Z,-3.92
2022-12-18T02:08:23.408Z,-3.99
2022-12-18T02:11:20.657Z,-3.98
2022-12-18T02:14:12.812Z,-4.02
2022-12-18T02:17:02.820Z,-4.02
2022-12-18T02:19:52.297Z,-4.05
2022-12-18T02:22:45.572Z,-4.11
2022-12-18T02:25:31.017Z,-4.05
2022-12-18T02:28:00.931Z,-4.10
2022-12-18T02:30:32.507Z,-4.15
2022-12-18T02:33:02.263Z,-4.15
2022-12-18T02:35:31.445Z,-4.22
2022-12-18T02:37:59.261Z,-4.21
2022-12-18T02:40:28.936Z,-4.19
2022-12-18T02:42:56.344Z,-4.16
2022-12-18T02:45:24.347Z,-4.22
2022-12-18T02:47:52.739Z,-4.24
2022-12-18T02:50:23.911Z,-4.24
2022-12-18T02:53:05.375Z,-4.25
2022-12-18T02:55:41.665Z,-4.22
2022-12-18T02:58:29.953Z,-4.23
2022-12-18T03:01:29.632Z,-4.28
2022-12-18T03:04:02.476Z,-4.26
2022-12-18T03:06:33.573Z,-4.21
2022-12-18T03:09:03.898Z,-4.25
2022-12-18T03:11:52.640Z,-4.24
2022-12-18T03:14:21.759Z,-4.20
2022-12-18T03:16:52.833Z,-4.24
2022-12-18T03:19:23.854Z,-4.22
2022-12-18T03:21:55.518Z,-4.18
2022-12-18T03:24:24.956Z,-4.23
2022-12-18T03:26:55.940Z,-4.15
2022-12-18T03:29:30.052Z,-4.22
2022-12-18T03:32:04.397Z,-4.25
2022-12-18T03:34:35.045Z,-4.30
2022-12-18T03:37:04.367Z,-4.30
2022-12-18T03:39:32.803Z,-4.33
2022-12-18T03:42:15.775Z,-4.34
2022-12-18T03:45:16.829Z,-4.36
2022-12-18T03:48:01.900Z,-4.30
2022-12-18T03:50:49.092Z,-4.35
2022-12-18T03:53:46.107Z,-4.35
2022-12-18T03:56:15.000Z,-4.33
2022-12-18T03:58:43.301Z,-4.41
2022-12-18T04:01:13.559Z,-4.36
2022-12-18T04:03:42.632Z,-4.36
2022-12-18T04:06:11.071Z,-4.35
2022-12-18T04:08:39.621Z,-4.30
2022-12-18T04:11:07.326Z,-4.35
2022-12-18T04:13:37.376Z,-4.46
2022-12-18T04:16:06.340Z,-4.43
2022-12-18T04:18:33.871Z,-4.43
2022-12-18T04:21:01.185Z,-4.47
2022-12-18T04:23:29.395Z,-4.46
2022-12-18T04:25:57.415Z,-4.39
2022-12-18T04:28:27.227Z,-4.37
2022-12-18T04:30:54.390Z,-4.41
2022-12-18T04:33:22.706Z,-4.44
2022-12-18T04:35:50.028Z,-4.42
2022-12-18T04:38:18.048Z,-4.47
2022-12-18T04:40:46.597Z,-4.53
2022-12-18T04:43:14.944Z,-4.50
2022-12-18T04:45:42.121Z,-4.49
2022-12-18T04:48:09.526Z,-4.44
2022-12-18T04:50:37.435Z,-4.49
2022-12-18T04:53:04.560Z,-4.46
2022-12-18T04:55:31.936Z,-4.52
2022-12-18T04:57:58.993Z,-4.54
2022-12-18T05:00:27.311Z,-4.49
2022-12-18T05:02:55.227Z,-4.56
2022-12-18T05:05:22.388Z,-4.52
2022-12-18T05:07:49.444Z,-4.49
2022-12-18T05:10:16.782Z,-4.49
2022-12-18T05:13:02.154Z,-4.55
2022-12-18T05:15:30.818Z,-4.56
2022-12-18T05:17:58.957Z,-4.54
2022-12-18T05:20:26.874Z,-4.59
2022-12-18T05:22:55.504Z,-4.58
2022-12-18T05:25:23.405Z,-4.75
2022-12-18T05:27:50.455Z,-4.71
2022-12-18T05:30:18.036Z,-4.75
2022-12-18T05:32:45.117Z,-4.79
2022-12-18T05:35:12.385Z,-4.77
2022-12-18T05:37:43.169Z,-4.80
2022-12-18T05:40:11.339Z,-4.78
2022-12-18T05:42:38.470Z,-4.79
2022-12-18T05:45:06.790Z,-4.75
2022-12-18T05:47:33.813Z,-4.75
2022-12-18T05:50:00.886Z,-4.79
2022-12-18T05:52:28.181Z,-4.82
2022-12-18T05:54:55.277Z,-4.87
2022-12-18T05:57:22.349Z,-4.93
2022-12-18T05:59:49.708Z,-4.88
2022-12-18T06:02:16.913Z,-4.86
2022-12-18T06:04:44.318Z,-4.88
2022-12-18T06:07:11.368Z,-4.93
2022-12-18T06:09:38.505Z,-4.93
2022-12-18T06:12:06.328Z,-4.88
2022-12-18T06:14:33.409Z,-4.86
2022-12-18T06:17:00.437Z,-4.90
2022-12-18T06:19:27.733Z,-4.89
2022-12-18T06:21:54.748Z,-4.91
2022-12-18T06:24:21.798Z,-4.94
2022-12-18T06:26:49.082Z,-4.99
2022-12-18T06:29:16.077Z,-5.06
2022-12-18T06:31:43.114Z,-5.10
2022-12-18T06:34:10.454Z,-5.14
2022-12-18T06:36:37.452Z,-5.15
2022-12-18T06:39:04.980Z,-5.13
2022-12-18T06:41:32.290Z,-5.09
2022-12-18T06:44:00.063Z,-5.15
2022-12-18T06:46:27.783Z,-5.14
2022-12-18T06:48:55.033Z,-5.11
2022-12-18T06:51:23.601Z,-5.07
2022-12-18T06:53:50.778Z,-5.01
2022-12-18T06:56:18.274Z,-5.00
2022-12-18T06:58:45.345Z,-4.98
2022-12-18T07:01:13.313Z,-4.86
2022-12-18T07:03:42.164Z,-4.83
2022-12-18T07:06:27.447Z,-4.81
2022-12-18T07:08:55.264Z,-4.76
2022-12-18T07:11:22.814Z,-4.64
2022-12-18T07:13:49.889Z,-4.57
2022-12-18T07:16:25.197Z,-4.55
2022-12-18T07:18:53.267Z,-4.39
2022-12-18T07:21:20.724Z,-4.29
2022-12-18T07:23:49.198Z,-4.19
2022-12-18T07:26:18.643Z,-4.13
2022-12-18T07:28:46.089Z,-4.17
2022-12-18T07:31:15.747Z,-4.13
2022-12-18T07:33:43.331Z,-4.00
2022-12-18T07:36:11.289Z,-3.97
2022-12-18T07:38:38.653Z,-3.89
2022-12-18T07:41:08.216Z,-3.76
2022-12-18T07:43:36.169Z,-3.76
2022-12-18T07:46:03.796Z,-3.64
2022-12-18T07:48:31.516Z,-3.53
2022-12-18T07:51:03.659Z,-3.36
2022-12-18T07:53:31.526Z,-3.28
2022-12-18T07:56:25.969Z,-3.35
2022-12-18T07:58:48.568Z,-3.29
2022-12-18T08:01:16.644Z,-3.09
2022-12-18T08:03:44.581Z,-3.05
2022-12-18T08:06:11.633Z,-3.05
2022-12-18T08:08:38.759Z,-2.98
2022-12-18T08:11:06.119Z,-2.98
2022-12-18T08:13:33.186Z,-2.90
2022-12-18T08:16:02.688Z,-2.91
2022-12-18T08:18:30.561Z,-2.98
2022-12-18T08:21:10.321Z,-3.03
2022-12-18T08:23:42.568Z,-3.06
2022-12-18T08:26:11.298Z,-3.03
2022-12-18T08:28:38.904Z,-2.97
2022-12-18T08:31:06.379Z,-2.88
2022-12-18T08:33:33.907Z,-2.80
2022-12-18T08:36:01.785Z,-2.76
2022-12-18T08:38:29.136Z,-2.82
2022-12-18T08:41:04.001Z,-2.75
2022-12-18T08:43:50.122Z,-2.93
2022-12-18T08:46:17.700Z,-2.88
2022-12-18T08:48:45.159Z,-2.67
2022-12-18T08:51:13.539Z,-2.74
2022-12-18T08:53:41.022Z,-2.57
2022-12-18T08:56:09.034Z,-2.51
2022-12-18T08:58:36.091Z,-2.31
2022-12-18T09:01:08.214Z,-2.29
2022-12-18T09:03:36.051Z,-2.29
2022-12-18T09:06:03.384Z,-2.27
2022-12-18T09:08:30.835Z,-2.11
2022-12-18T09:11:04.074Z,-2.16
2022-12-18T09:13:31.313Z,-2.12
2022-12-18T09:15:58.527Z,-2.06
2022-12-18T09:18:26.125Z,-2.09
2022-12-18T09:20:53.966Z,-2.06
2022-12-18T09:23:21.823Z,-1.99
2022-12-18T09:25:49.644Z,-1.90
2022-12-18T09:28:18.655Z,-1.75
2022-12-18T09:30:50.191Z,-1.66
2022-12-18T09:33:18.523Z,-1.49
2022-12-18T09:35:47.190Z,-1.56
2022-12-18T09:38:17.443Z,-1.52
2022-12-18T09:40:51.194Z,-1.27
2022-12-18T09:43:20.963Z,-1.21
2022-12-18T09:45:59.477Z,-1.08
2022-12-18T09:48:32.337Z,-0.99
2022-12-18T09:51:03.797Z,-0.93
2022-12-18T09:53:34.351Z,-0.92
2022-12-18T09:56:02.885Z,-0.83
2022-12-18T09:58:34.253Z,-0.80
2022-12-18T10:01:01.519Z,-0.83
2022-12-18T10:03:29.023Z,-0.77
2022-12-18T10:06:14.737Z,-0.78
2022-12-18T10:08:49.567Z,-0.77
2022-12-18T10:11:28.691Z,-0.65
2022-12-18T10:14:12.205Z,-0.56
2022-12-18T10:16:48.531Z,-0.40
2022-12-18T10:19:34.515Z,-0.50
2022-12-18T10:22:23.197Z,-0.30
2022-12-18T10:24:52.316Z,-0.27
2022-12-18T10:27:23.602Z,-0.27
2022-12-18T10:29:50.810Z,-0.11
2022-12-18T10:32:24.335Z,-0.12
2022-12-18T10:35:00.047Z,-0.17
2022-12-18T10:37:30.359Z,-0.17
2022-12-18T10:40:10.801Z,-0.08
2022-12-18T10:42:38.495Z,-0.11
2022-12-18T10:45:16.334Z,-0.08
2022-12-18T10:47:49.676Z,-0.06
2022-12-18T10:51:01.290Z,-0.01
2022-12-18T10:53:21.556Z,0.05
2022-12-18T10:55:49.143Z,0.10
2022-12-18T10:58:26.751Z,0.15
2022-12-18T11:01:16.700Z,0.14
2022-12-18T11:04:02.468Z,0.17
2022-12-18T11:06:30.460Z,0.13
2022-12-18T11:09:23.082Z,0.16
2022-12-18T11:11:54.991Z,0.22
2022-12-18T11:14:25.173Z,0.42
2022-12-18T11:19:42.029Z,0.45
2022-12-18T11:22:28.847Z,0.52
2022-12-18T11:25:30.216Z,0.69
2022-12-18T11:27:50.810Z,0.65
2022-12-18T11:30:21.109Z,0.63
2022-12-18T11:32:50.215Z,0.60
2022-12-18T11:35:29.615Z,0.70
2022-12-18T11:38:27.555Z,0.76
2022-12-18T11:42:00.466Z,0.79
2022-12-18T11:44:44.055Z,0.79
2022-12-18T11:47:37.135Z,0.90
2022-12-18T11:50:16.166Z,0.94
2022-12-18T11:52:43.976Z,0.98
2022-12-18T11:55:26.657Z,1.08
2022-12-18T11:58:06.002Z,1.14
2022-12-18T12:00:36.761Z,1.19
2022-12-18T12:03:16.224Z,1.32
2022-12-18T12:06:07.275Z,1.33
2022-12-18T12:08:52.988Z,1.40
2022-12-18T12:11:52.499Z,1.37
2022-12-18T12:14:33.671Z,1.41
2022-12-18T12:17:26.961Z,1.52
2022-12-18T12:20:23.577Z,1.59
2022-12-18T12:23:02.061Z,1.52
2022-12-18T12:25:40.671Z,1.59
2022-12-18T12:28:39.088Z,1.58
2022-12-18T12:31:09.003Z,1.50
2022-12-18T12:33:51.036Z,1.60
2022-12-18T12:36:27.340Z,1.66
2022-12-18T12:38:57.358Z,1.53
2022-12-18T12:41:45.726Z,1.54
2022-12-18T12:44:19.572Z,1.50
2022-12-18T12:46:47.807Z,1.57
2022-12-18T12:49:18.689Z,1.72
2022-12-18T12:52:14.367Z,1.74
2022-12-18T12:54:42.174Z,1.72
2022-12-18T12:57:19.234Z,1.70
2022-12-18T13:00:03.744Z,1.61
2022-12-18T13:02:40.187Z,1.58
2022-12-18T13:05:17.915Z,1.63
2022-12-18T13:07:51.459Z,1.57
2022-12-18T13:10:22.231Z,1.50
2022-12-18T13:12:58.816Z,1.42
2022-12-18T13:15:40.673Z,1.39
2022-12-18T13:18:10.439Z,1.47
2022-12-18T13:20:40.735Z,1.53
2022-12-18T13:23:20.983Z,1.48
2022-12-18T13:25:51.221Z,1.39
2022-12-18T13:28:22.938Z,1.33
2022-12-18T13:30:55.383Z,1.33
2022-12-18T13:33:27.933Z,1.27
2022-12-18T13:36:28.619Z,1.31
2022-12-18T13:39:17.303Z,1.22
2022-12-18T13:41:50.467Z,1.24
2022-12-18T13:44:41.135Z,1.20
2022-12-18T13:47:33.799Z,1.22
2022-12-18T13:50:12.880Z,1.14
2022-12-18T13:52:41.260Z,1.07
2022-12-18T13:55:17.588Z,1.06
2022-12-18T13:57:45.221Z,1.09
2022-12-18T14:00:29.790Z,1.09
2022-12-18T14:02:58.526Z,1.04
2022-12-18T14:05:31.047Z,1.04
2022-12-18T14:08:03.777Z,0.93
2022-12-18T14:10:47.794Z,0.87
2022-12-18T14:13:24.747Z,0.87
2022-12-18T14:15:52.035Z,0.86
2022-12-18T14:18:25.232Z,0.78
2022-12-18T14:20:54.596Z,0.70
2022-12-18T14:23:33.556Z,0.67
2022-12-18T14:26:05.725Z,0.60
2022-12-18T14:28:45.007Z,0.59
2022-12-18T14:31:23.273Z,0.50
2022-12-18T14:33:51.299Z,0.47
2022-12-18T14:36:29.691Z,0.42
2022-12-18T14:38:58.496Z,0.32
2022-12-18T14:41:26.517Z,0.26
2022-12-18T14:43:55.130Z,0.20
2022-12-18T14:46:46.793Z,0.10
2022-12-18T14:49:34.905Z,0.06
2022-12-18T14:52:04.818Z,-0.07
2022-12-18T14:54:32.552Z,-0.20
2022-12-18T14:57:07.730Z,-0.33
2022-12-18T14:59:35.030Z,-0.42
2022-12-18T15:02:26.804Z,-0.62
2022-12-18T15:05:22.057Z,-0.70
2022-12-18T15:07:51.893Z,-0.78
2022-12-18T15:10:34.116Z,-0.98
2022-12-18T15:13:01.577Z,-1.09
2022-12-18T15:15:37.991Z,-1.13
2022-12-18T15:18:07.566Z,-1.20
2022-12-18T15:20:52.136Z,-1.28
2022-12-18T15:23:27.700Z,-1.41
2022-12-18T15:26:00.433Z,-1.49
2022-12-18T15:28:39.099Z,-1.51
2022-12-18T15:31:26.376Z,-1.52
2022-12-18T15:33:53.870Z,-1.66
2022-12-18T15:36:26.174Z,-1.69
2022-12-18T15:39:02.903Z,-1.68
2022-12-18T15:41:35.211Z,-1.69
2022-12-18T15:44:04.503Z,-1.77
2022-12-18T15:46:32.114Z,-1.83
2022-12-18T15:49:02.558Z,-1.88
2022-12-18T15:51:41.440Z,-1.84
2022-12-18T15:54:13.962Z,-1.89
2022-12-18T15:56:59.597Z,-1.96
2022-12-18T15:59:27.007Z,-1.97
2022-12-18T16:01:54.370Z,-2.06
2022-12-18T16:04:23.097Z,-2.05
2022-12-18T16:09:40.987Z,-2.04
2022-12-18T16:12:22.144Z,-2.11
2022-12-18T16:14:49.680Z,-2.15
2022-12-18T16:17:16.916Z,-2.10
2022-12-18T16:19:44.288Z,-2.19
2022-12-18T16:22:19.941Z,-2.16
2022-12-18T16:24:46.994Z,-2.17
2022-12-18T16:27:14.352Z,-2.18
2022-12-18T16:29:41.448Z,-2.19
2022-12-18T16:32:14.079Z,-2.19
2022-12-18T16:34:42.951Z,-2.32
2022-12-18T16:37:11.871Z,-2.28
2022-12-18T16:39:40.127Z,-2.27
2022-12-18T16:42:13.653Z,-2.32
2022-12-18T16:44:41.306Z,-2.37
2022-12-18T16:47:09.546Z,-2.42
2022-12-18T16:49:38.585Z,-2.53
2022-12-18T16:52:06.581Z,-2.62
2022-12-18T16:54:35.135Z,-2.67
2022-12-18T16:57:02.733Z,-2.83
2022-12-18T16:59:29.912Z,-2.95
2022-12-18T17:01:57.724Z,-3.01
2022-12-18T17:04:25.104Z,-3.04
2022-12-18T17:06:53.859Z,-3.07
2022-12-18T17:09:31.040Z,-3.09
2022-12-18T17:11:58.167Z,-3.15
2022-12-18T17:14:25.841Z,-3.24
2022-12-18T17:17:20.288Z,-3.28
2022-12-18T17:19:44.408Z,-3.25
2022-12-18T17:22:11.489Z,-3.25
2022-12-18T17:24:38.622Z,-3.20
2022-12-18T17:27:06.029Z,-3.22
2022-12-18T17:29:33.231Z,-3.28
2022-12-18T17:32:00.410Z,-3.31
2022-12-18T17:34:30.132Z,-3.43
2022-12-18T17:36:58.056Z,-3.43
2022-12-18T17:39:25.804Z,-3.50
2022-12-18T17:41:53.083Z,-3.56
2022-12-18T17:44:20.410Z,-3.57
2022-12-18T17:46:47.538Z,-3.62
2022-12-18T17:49:15.008Z,-3.69
2022-12-18T17:51:43.092Z,-3.76
2022-12-18T17:54:11.058Z,-3.80
2022-12-18T17:56:38.818Z,-3.80
2022-12-18T17:59:07.180Z,-3.88
2022-12-18T18:01:38.479Z,-3.86
2022-12-18T18:04:08.501Z,-3.85
2022-12-18T18:06:38.101Z,-3.90
2022-12-18T18:09:12.948Z,-3.98
2022-12-18T18:12:06.691Z,-4.06
2022-12-18T18:14:33.724Z,-4.14
2022-12-18T18:17:04.795Z,-4.16
2022-12-18T18:19:35.751Z,-4.17
2022-12-18T18:22:03.709Z,-4.19
2022-12-18T18:24:31.272Z,-4.18
2022-12-18T18:27:00.020Z,-4.25
2022-12-18T18:29:30.297Z,-4.34
2022-12-18T18:31:57.934Z,-4.31
2022-12-18T18:34:27.921Z,-4.35
2022-12-18T18:36:55.570Z,-4.32
2022-12-18T18:39:25.391Z,-4.32
2022-12-18T18:41:52.814Z,-4.32
2022-12-18T18:44:24.812Z,-4.37
2022-12-18T18:46:57.312Z,-4.37
2022-12-18T18:49:27.459Z,-4.40
2022-12-18T18:51:56.291Z,-4.42
2022-12-18T18:54:25.382Z,-4.45
2022-12-18T18:59:39.856Z,-4.48
2022-12-18T19:02:14.302Z,-4.57
2022-12-18T19:04:46.260Z,-4.58
2022-12-18T19:07:19.752Z,-4.56
2022-12-18T19:09:57.132Z,-4.64
2022-12-18T19:12:45.052Z,-4.60
2022-12-18T19:15:12.055Z,-4.53
2022-12-18T19:17:41.068Z,-4.51
2022-12-18T19:20:10.172Z,-4.53
2022-12-18T19:22:39.472Z,-4.52
2022-12-18T19:25:07.686Z,-4.57
2022-12-18T19:27:38.531Z,-4.61
2022-12-18T19:30:06.102Z,-4.62
2022-12-18T19:32:36.451Z,-4.62
2022-12-18T19:35:04.003Z,-4.69
2022-12-18T19:37:31.205Z,-4.74
2022-12-18T19:39:58.634Z,-4.82
2022-12-18T19:42:34.848Z,-4.84
2022-12-18T19:45:07.204Z,-4.83
2022-12-18T19:47:34.203Z,-4.85
2022-12-18T19:50:01.274Z,-4.84
2022-12-18T19:52:28.621Z,-4.86
2022-12-18T19:54:55.702Z,-4.90
2022-12-18T19:57:22.810Z,-4.96
2022-12-18T19:59:50.142Z,-5.07
2022-12-18T20:02:18.933Z,-5.07
2022-12-18T20:04:46.737Z,-5.08
2022-12-18T20:07:13.804Z,-5.11
2022-12-18T20:09:40.903Z,-5.08
2022-12-18T20:12:08.347Z,-4.93
2022-12-18T20:14:36.647Z,-4.88
2022-12-18T20:17:03.758Z,-4.82
2022-12-18T20:19:32.319Z,-4.77
2022-12-18T20:22:01.162Z,-4.64
2022-12-18T20:24:28.268Z,-4.56
2022-12-18T20:26:56.435Z,-4.59
2022-12-18T20:29:23.438Z,-4.65
2022-12-18T20:31:50.691Z,-4.86
2022-12-18T20:34:18.446Z,-4.93
2022-12-18T20:36:46.394Z,-4.66
2022-12-18T20:39:13.595Z,-4.60
2022-12-18T20:41:41.751Z,-4.44
2022-12-18T20:44:22.878Z,-4.45
2022-12-18T20:46:53.908Z,-4.40
2022-12-18T20:49:21.227Z,-4.44
2022-12-18T20:51:52.906Z,-4.37
2022-12-18T20:54:24.710Z,-4.42
2022-12-18T20:56:52.279Z,-4.49
2022-12-18T20:59:19.778Z,-4.62
2022-12-18T21:01:48.982Z,-4.59
2022-12-18T21:04:18.991Z,-4.53
2022-12-18T21:06:52.997Z,-4.49
2022-12-18T21:09:23.409Z,-4.34
2022-12-18T21:12:29.236Z,-4.30
2022-12-18T21:14:59.725Z,-4.20
2022-12-18T21:17:27.262Z,-4.09
2022-12-18T21:19:55.753Z,-4.13
2022-12-18T21:22:23.155Z,-4.11
2022-12-18T21:24:50.310Z,-4.10
2022-12-18T21:27:18.116Z,-4.01
2022-12-18T21:29:47.047Z,-3.94
2022-12-18T21:32:14.407Z,-3.87
2022-12-18T21:34:47.505Z,-3.83
2022-12-18T21:37:15.831Z,-3.76
2022-12-18T21:39:42.873Z,-3.65
2022-12-18T21:42:30.683Z,-3.63
2022-12-18T21:44:58.006Z,-3.90
2022-12-18T21:47:25.091Z,-3.93
2022-12-18T21:49:52.849Z,-3.84
2022-12-18T21:52:23.878Z,-3.76
2022-12-18T21:55:06.154Z,-3.64
2022-12-18T21:57:36.034Z,-3.55
2022-12-18T22:00:04.216Z,-3.60
2022-12-18T22:02:39.631Z,-3.71
2022-12-18T22:05:07.557Z,-3.78
2022-12-18T22:07:34.780Z,-3.89
2022-12-18T22:10:02.286Z,-3.87
2022-12-18T22:12:44.420Z,-3.95
2022-12-18T22:15:21.143Z,-4.07
2022-12-18T22:17:50.787Z,-3.97
2022-12-18T22:20:19.990Z,-3.96
2022-12-18T22:22:48.469Z,-3.97
2022-12-18T22:25:16.002Z,-3.95
2022-12-18T22:27:43.416Z,-3.99
2022-12-18T22:30:11.379Z,-3.87
2022-12-18T22:32:38.715Z,-3.83
2022-12-18T22:35:10.603Z,-3.80
2022-12-18T22:37:40.273Z,-3.84
2022-12-18T22:40:08.637Z,-3.90
2022-12-18T22:42:35.819Z,-3.88
2022-12-18T22:45:03.312Z,-3.85
2022-12-18T22:47:30.840Z,-3.80
2022-12-18T22:49:58.284Z,-3.83
2022-12-18T22:52:25.899Z,-3.90
2022-12-18T22:54:56.402Z,-3.91
2022-12-18T22:57:23.853Z,-3.90
2022-12-18T22:59:51.811Z,-3.92
2022-12-18T23:02:19.327Z,-3.79
2022-12-18T23:04:47.564Z,-3.92
2022-12-18T23:07:15.699Z,-3.88
2022-12-18T23:09:42.955Z,-3.92
2022-12-18T23:12:15.444Z,-3.95
2022-12-18T23:14:47.196Z,-3.89
2022-12-18T23:17:14.334Z,-3.94
2022-12-18T23:19:47.176Z,-3.92
2022-12-18T23:22:17.068Z,-3.88
2022-12-18T23:24:44.194Z,-3.93
2022-12-18T23:27:11.936Z,-3.92
2022-12-18T23:29:40.540Z,-3.88
2022-12-18T23:32:07.833Z,-3.97
2022-12-18T23:34:34.807Z,-3.93
2022-12-18T23:37:03.642Z,-3.92
2022-12-18T23:39:31.049Z,-3.96
2022-12-18T23:41:58.760Z,-3.98
2022-12-18T23:44:26.296Z,-4.01
2022-12-18T23:46:53.577Z,-4.01
2022-12-18T23:49:20.703Z,-4.06
2022-12-18T23:51:48.084Z,-4.08
2022-12-18T23:54:15.176Z,-4.13
2022-12-18T23:56:42.324Z,-4.13
2022-12-18T23:59:09.848Z,-4.06
